sensor_id;sensor_type;location;lat;lon;timestamp;P1;durP1;ratioP1;P2;durP2;ratioP2
74180;SDS011;62544;50.826;14.354;2022-12-07T00:01:42;1.40;;;1.25;;
74180;SDS011;62544;50.826;14.354;2022-12-07T00:05:46;1.40;;;1.25;;
74180;SDS011;62544;50.826;14.354;2022-12-07T00:09:50;2.48;;;2.06;;
74180;SDS011;62544;50.826;14.354;2022-12-07T00:13:55;2.48;;;2.06;;
74180;SDS011;62544;50.826;14.354;2022-12-07T00:17:58;2.59;;;1.80;;
74180;SDS011;62544;50.826;14.354;2022-12-07T00:22:02;2.59;;;1.80;;
74180;SDS011;62544;50.826;14.354;2022-12-07T00:26:07;2.59;;;1.80;;
74180;SDS011;62544;50.826;14.354;2022-12-07T00:30:10;3.92;;;2.66;;
74180;SDS011;62544;50.826;14.354;2022-12-07T00:34:15;3.92;;;2.66;;
74180;SDS011;62544;50.826;14.354;2022-12-07T00:38:18;7.31;;;4.82;;
74180;SDS011;62544;50.826;14.354;2022-12-07T00:42:22;7.31;;;4.82;;
74180;SDS011;62544;50.826;14.354;2022-12-07T00:46:26;7.31;;;4.82;;
74180;SDS011;62544;50.826;14.354;2022-12-07T00:50:30;3.84;;;2.61;;
74180;SDS011;62544;50.826;14.354;2022-12-07T00:54:34;3.84;;;2.61;;
74180;SDS011;62544;50.826;14.354;2022-12-07T00:58:38;11.73;;;7.13;;
74180;SDS011;62544;50.826;14.354;2022-12-07T01:02:42;11.73;;;7.13;;
74180;SDS011;62544;50.826;14.354;2022-12-07T01:06:46;7.17;;;4.91;;
74180;SDS011;62544;50.826;14.354;2022-12-07T01:10:56;7.17;;;4.91;;
74180;SDS011;62544;50.826;14.354;2022-12-07T01:14:54;7.17;;;4.91;;
74180;SDS011;62544;50.826;14.354;2022-12-07T01:18:58;7.69;;;5.12;;
74180;SDS011;62544;50.826;14.354;2022-12-07T01:23:02;7.69;;;5.12;;
74180;SDS011;62544;50.826;14.354;2022-12-07T01:27:06;8.70;;;5.99;;
74180;SDS011;62544;50.826;14.354;2022-12-07T01:31:11;8.70;;;5.99;;
74180;SDS011;62544;50.826;14.354;2022-12-07T01:35:14;8.70;;;5.99;;
74180;SDS011;62544;50.826;14.354;2022-12-07T01:39:18;7.70;;;5.53;;
74180;SDS011;62544;50.826;14.354;2022-12-07T01:43:22;7.70;;;5.53;;
74180;SDS011;62544;50.826;14.354;2022-12-07T01:47:25;7.34;;;5.31;;
74180;SDS011;62544;50.826;14.354;2022-12-07T01:51:30;7.34;;;5.31;;
74180;SDS011;62544;50.826;14.354;2022-12-07T01:55:34;7.34;;;5.31;;
74180;SDS011;62544;50.826;14.354;2022-12-07T01:59:38;7.93;;;5.60;;
74180;SDS011;62544;50.826;14.354;2022-12-07T02:03:43;7.93;;;5.60;;
74180;SDS011;62544;50.826;14.354;2022-12-07T02:07:46;5.55;;;4.35;;
74180;SDS011;62544;50.826;14.354;2022-12-07T02:11:50;5.55;;;4.35;;
74180;SDS011;62544;50.826;14.354;2022-12-07T02:20:08;9.62;;;6.04;;
74180;SDS011;62544;50.826;14.354;2022-12-07T02:32:16;8.10;;;5.93;;
74180;SDS011;62544;50.826;14.354;2022-12-07T02:36:16;8.10;;;5.93;;
74180;SDS011;62544;50.826;14.354;2022-12-07T02:44:23;9.11;;;5.84;;
74180;SDS011;62544;50.826;14.354;2022-12-07T02:48:25;10.19;;;6.60;;
74180;SDS011;62544;50.826;14.354;2022-12-07T02:52:30;10.19;;;6.60;;
74180;SDS011;62544;50.826;14.354;2022-12-07T03:00:41;9.16;;;5.83;;
74180;SDS011;62544;50.826;14.354;2022-12-07T03:04:54;9.16;;;5.83;;
74180;SDS011;62544;50.826;14.354;2022-12-07T03:16:55;7.26;;;4.82;;
74180;SDS011;62544;50.826;14.354;2022-12-07T03:20:58;7.26;;;4.82;;
74180;SDS011;62544;50.826;14.354;2022-12-07T03:25:06;7.26;;;4.82;;
74180;SDS011;62544;50.826;14.354;2022-12-07T03:29:07;4.36;;;2.99;;
74180;SDS011;62544;50.826;14.354;2022-12-07T03:33:13;4.36;;;2.99;;
74180;SDS011;62544;50.826;14.354;2022-12-07T03:41:24;3.31;;;2.59;;
74180;SDS011;62544;50.826;14.354;2022-12-07T03:45:23;3.31;;;2.59;;
74180;SDS011;62544;50.826;14.354;2022-12-07T03:49:31;3.99;;;2.75;;
74180;SDS011;62544;50.826;14.354;2022-12-07T03:53:39;3.99;;;2.75;;
74180;SDS011;62544;50.826;14.354;2022-12-07T03:57:33;4.98;;;3.27;;
74180;SDS011;62544;50.826;14.354;2022-12-07T04:01:37;4.98;;;3.27;;
74180;SDS011;62544;50.826;14.354;2022-12-07T04:05:42;4.98;;;3.27;;
74180;SDS011;62544;50.826;14.354;2022-12-07T04:09:45;6.26;;;4.09;;
74180;SDS011;62544;50.826;14.354;2022-12-07T04:13:49;6.26;;;4.09;;
74180;SDS011;62544;50.826;14.354;2022-12-07T04:17:53;12.09;;;6.48;;
74180;SDS011;62544;50.826;14.354;2022-12-07T04:21:58;12.09;;;6.48;;
74180;SDS011;62544;50.826;14.354;2022-12-07T04:26:01;12.09;;;6.48;;
74180;SDS011;62544;50.826;14.354;2022-12-07T04:30:06;10.66;;;6.05;;
74180;SDS011;62544;50.826;14.354;2022-12-07T04:34:10;10.66;;;6.05;;
74180;SDS011;62544;50.826;14.354;2022-12-07T04:38:13;9.00;;;5.06;;
74180;SDS011;62544;50.826;14.354;2022-12-07T04:42:17;9.00;;;5.06;;
74180;SDS011;62544;50.826;14.354;2022-12-07T04:46:22;9.00;;;5.06;;
74180;SDS011;62544;50.826;14.354;2022-12-07T04:50:25;9.30;;;4.59;;
74180;SDS011;62544;50.826;14.354;2022-12-07T04:54:29;9.30;;;4.59;;
74180;SDS011;62544;50.826;14.354;2022-12-07T04:58:33;10.83;;;4.90;;
74180;SDS011;62544;50.826;14.354;2022-12-07T05:02:37;10.83;;;4.90;;
74180;SDS011;62544;50.826;14.354;2022-12-07T05:06:41;9.70;;;4.44;;
74180;SDS011;62544;50.826;14.354;2022-12-07T05:10:45;9.70;;;4.44;;
74180;SDS011;62544;50.826;14.354;2022-12-07T05:14:49;9.70;;;4.44;;
74180;SDS011;62544;50.826;14.354;2022-12-07T05:18:53;11.31;;;4.74;;
74180;SDS011;62544;50.826;14.354;2022-12-07T05:22:57;11.31;;;4.74;;
74180;SDS011;62544;50.826;14.354;2022-12-07T05:27:01;10.20;;;4.63;;
74180;SDS011;62544;50.826;14.354;2022-12-07T05:31:05;10.20;;;4.63;;
74180;SDS011;62544;50.826;14.354;2022-12-07T05:35:09;10.20;;;4.63;;
74180;SDS011;62544;50.826;14.354;2022-12-07T05:39:13;13.20;;;5.59;;
74180;SDS011;62544;50.826;14.354;2022-12-07T05:43:17;13.20;;;5.59;;
74180;SDS011;62544;50.826;14.354;2022-12-07T05:47:21;11.89;;;4.47;;
74180;SDS011;62544;50.826;14.354;2022-12-07T05:51:25;11.89;;;4.47;;
74180;SDS011;62544;50.826;14.354;2022-12-07T05:55:29;11.89;;;4.47;;
74180;SDS011;62544;50.826;14.354;2022-12-07T05:59:33;17.04;;;5.98;;
74180;SDS011;62544;50.826;14.354;2022-12-07T06:03:37;17.04;;;5.98;;
74180;SDS011;62544;50.826;14.354;2022-12-07T06:07:41;17.25;;;6.10;;
74180;SDS011;62544;50.826;14.354;2022-12-07T06:11:45;17.25;;;6.10;;
74180;SDS011;62544;50.826;14.354;2022-12-07T06:15:49;17.25;;;6.10;;
74180;SDS011;62544;50.826;14.354;2022-12-07T06:19:53;19.36;;;6.15;;
74180;SDS011;62544;50.826;14.354;2022-12-07T06:23:57;19.36;;;6.15;;
74180;SDS011;62544;50.826;14.354;2022-12-07T06:28:01;20.63;;;6.63;;
74180;SDS011;62544;50.826;14.354;2022-12-07T06:32:05;20.63;;;6.63;;
74180;SDS011;62544;50.826;14.354;2022-12-07T06:36:09;20.63;;;6.63;;
74180;SDS011;62544;50.826;14.354;2022-12-07T06:40:13;24.15;;;7.88;;
74180;SDS011;62544;50.826;14.354;2022-12-07T06:44:17;24.15;;;7.88;;
74180;SDS011;62544;50.826;14.354;2022-12-07T06:48:21;20.54;;;6.93;;
74180;SDS011;62544;50.826;14.354;2022-12-07T06:52:25;20.54;;;6.93;;
74180;SDS011;62544;50.826;14.354;2022-12-07T06:56:29;20.95;;;7.03;;
74180;SDS011;62544;50.826;14.354;2022-12-07T07:00:33;20.95;;;7.03;;
74180;SDS011;62544;50.826;14.354;2022-12-07T07:04:37;20.95;;;7.03;;
74180;SDS011;62544;50.826;14.354;2022-12-07T07:08:41;24.88;;;8.34;;
74180;SDS011;62544;50.826;14.354;2022-12-07T07:12:45;24.88;;;8.34;;
74180;SDS011;62544;50.826;14.354;2022-12-07T07:16:49;27.51;;;10.82;;
74180;SDS011;62544;50.826;14.354;2022-12-07T07:20:53;27.51;;;10.82;;
74180;SDS011;62544;50.826;14.354;2022-12-07T07:24:57;27.51;;;10.82;;
74180;SDS011;62544;50.826;14.354;2022-12-07T07:29:01;31.13;;;10.54;;
74180;SDS011;62544;50.826;14.354;2022-12-07T07:33:05;31.13;;;10.54;;
74180;SDS011;62544;50.826;14.354;2022-12-07T07:37:09;30.77;;;9.89;;
74180;SDS011;62544;50.826;14.354;2022-12-07T07:41:13;30.77;;;9.89;;
74180;SDS011;62544;50.826;14.354;2022-12-07T07:45:18;30.77;;;9.89;;
74180;SDS011;62544;50.826;14.354;2022-12-07T07:49:21;34.89;;;11.86;;
74180;SDS011;62544;50.826;14.354;2022-12-07T07:53:25;34.89;;;11.86;;
74180;SDS011;62544;50.826;14.354;2022-12-07T07:57:29;33.99;;;10.87;;
74180;SDS011;62544;50.826;14.354;2022-12-07T08:01:33;33.99;;;10.87;;
74180;SDS011;62544;50.826;14.354;2022-12-07T08:05:37;33.99;;;10.87;;
74180;SDS011;62544;50.826;14.354;2022-12-07T08:09:41;26.41;;;9.08;;
74180;SDS011;62544;50.826;14.354;2022-12-07T08:13:45;26.41;;;9.08;;
74180;SDS011;62544;50.826;14.354;2022-12-07T08:17:49;25.56;;;9.02;;
74180;SDS011;62544;50.826;14.354;2022-12-07T08:21:53;25.56;;;9.02;;
74180;SDS011;62544;50.826;14.354;2022-12-07T08:26:03;25.56;;;9.02;;
74180;SDS011;62544;50.826;14.354;2022-12-07T08:30:01;26.81;;;10.18;;
74180;SDS011;62544;50.826;14.354;2022-12-07T08:34:05;26.81;;;10.18;;
74180;SDS011;62544;50.826;14.354;2022-12-07T08:38:09;21.94;;;8.06;;
74180;SDS011;62544;50.826;14.354;2022-12-07T08:42:13;21.94;;;8.06;;
74180;SDS011;62544;50.826;14.354;2022-12-07T08:50:21;20.23;;;8.15;;
74180;SDS011;62544;50.826;14.354;2022-12-07T08:54:25;20.23;;;8.15;;
74180;SDS011;62544;50.826;14.354;2022-12-07T08:58:29;16.51;;;6.69;;
74180;SDS011;62544;50.826;14.354;2022-12-07T09:02:33;16.51;;;6.69;;
74180;SDS011;62544;50.826;14.354;2022-12-07T09:06:37;19.18;;;7.44;;
74180;SDS011;62544;50.826;14.354;2022-12-07T09:10:41;19.18;;;7.44;;
74180;SDS011;62544;50.826;14.354;2022-12-07T09:14:45;19.18;;;7.44;;
74180;SDS011;62544;50.826;14.354;2022-12-07T09:18:49;24.28;;;10.86;;
74180;SDS011;62544;50.826;14.354;2022-12-07T09:22:53;24.28;;;10.86;;
74180;SDS011;62544;50.826;14.354;2022-12-07T09:26:57;16.85;;;8.86;;
74180;SDS011;62544;50.826;14.354;2022-12-07T09:31:02;16.85;;;8.86;;
74180;SDS011;62544;50.826;14.354;2022-12-07T09:35:05;16.85;;;8.86;;
74180;SDS011;62544;50.826;14.354;2022-12-07T09:39:09;11.05;;;6.60;;
74180;SDS011;62544;50.826;14.354;2022-12-07T09:43:20;11.05;;;6.60;;
74180;SDS011;62544;50.826;14.354;2022-12-07T09:47:17;7.83;;;5.08;;
74180;SDS011;62544;50.826;14.354;2022-12-07T09:51:22;7.83;;;5.08;;
74180;SDS011;62544;50.826;14.354;2022-12-07T09:55:26;7.83;;;5.08;;
74180;SDS011;62544;50.826;14.354;2022-12-07T09:59:29;7.03;;;4.59;;
74180;SDS011;62544;50.826;14.354;2022-12-07T10:03:34;7.03;;;4.59;;
74180;SDS011;62544;50.826;14.354;2022-12-07T10:07:37;5.34;;;3.79;;
74180;SDS011;62544;50.826;14.354;2022-12-07T10:15:57;5.34;;;3.79;;
74180;SDS011;62544;50.826;14.354;2022-12-07T10:19:49;5.35;;;3.76;;
74180;SDS011;62544;50.826;14.354;2022-12-07T10:24:03;5.35;;;3.76;;
74180;SDS011;62544;50.826;14.354;2022-12-07T10:27:58;4.77;;;3.65;;
74180;SDS011;62544;50.826;14.354;2022-12-07T10:32:05;4.77;;;3.65;;
74180;SDS011;62544;50.826;14.354;2022-12-07T10:44:19;5.10;;;3.47;;
74180;SDS011;62544;50.826;14.354;2022-12-07T10:48:32;6.78;;;4.36;;
74180;SDS011;62544;50.826;14.354;2022-12-07T11:04:35;6.85;;;3.38;;
74180;SDS011;62544;50.826;14.354;2022-12-07T11:09:00;5.72;;;2.94;;
74180;SDS011;62544;50.826;14.354;2022-12-07T11:12:51;5.72;;;2.94;;
74180;SDS011;62544;50.826;14.354;2022-12-07T11:16:59;5.72;;;2.94;;
74180;SDS011;62544;50.826;14.354;2022-12-07T11:20:51;5.72;;;2.94;;
74180;SDS011;62544;50.826;14.354;2022-12-07T11:33:07;5.72;;;2.94;;
74180;SDS011;62544;50.826;14.354;2022-12-07T11:37:08;5.19;;;2.39;;
74180;SDS011;62544;50.826;14.354;2022-12-07T11:41:09;5.19;;;2.39;;
74180;SDS011;62544;50.826;14.354;2022-12-07T11:45:14;5.19;;;2.39;;
74180;SDS011;62544;50.826;14.354;2022-12-07T11:53:23;5.19;;;2.39;;
74180;SDS011;62544;50.826;14.354;2022-12-07T11:57:31;3.16;;;1.48;;
74180;SDS011;62544;50.826;14.354;2022-12-07T12:05:33;3.16;;;1.48;;
74180;SDS011;62544;50.826;14.354;2022-12-07T12:21:52;6.14;;;2.22;;
74180;SDS011;62544;50.826;14.354;2022-12-07T12:25:56;6.14;;;2.22;;
74180;SDS011;62544;50.826;14.354;2022-12-07T12:30:01;32.42;;;9.05;;
74180;SDS011;62544;50.826;14.354;2022-12-07T12:34:02;32.42;;;9.05;;
74180;SDS011;62544;50.826;14.354;2022-12-07T12:42:18;7.87;;;4.71;;
74180;SDS011;62544;50.826;14.354;2022-12-07T12:46:36;7.87;;;4.71;;
74180;SDS011;62544;50.826;14.354;2022-12-07T12:50:21;14.96;;;10.25;;
74180;SDS011;62544;50.826;14.354;2022-12-07T12:54:22;14.96;;;10.25;;
74180;SDS011;62544;50.826;14.354;2022-12-07T12:58:29;9.86;;;6.01;;
74180;SDS011;62544;50.826;14.354;2022-12-07T13:02:29;9.86;;;6.01;;
74180;SDS011;62544;50.826;14.354;2022-12-07T13:06:34;9.86;;;6.01;;
74180;SDS011;62544;50.826;14.354;2022-12-07T13:10:40;8.01;;;5.13;;
74180;SDS011;62544;50.826;14.354;2022-12-07T13:18:45;5.65;;;4.31;;
74180;SDS011;62544;50.826;14.354;2022-12-07T13:22:49;5.65;;;4.31;;
74180;SDS011;62544;50.826;14.354;2022-12-07T13:26:54;2.69;;;1.61;;
74180;SDS011;62544;50.826;14.354;2022-12-07T13:35:01;2.69;;;1.61;;
74180;SDS011;62544;50.826;14.354;2022-12-07T13:43:12;4.72;;;2.55;;
74180;SDS011;62544;50.826;14.354;2022-12-07T13:47:16;5.49;;;3.38;;
74180;SDS011;62544;50.826;14.354;2022-12-07T13:51:18;5.49;;;3.38;;
74180;SDS011;62544;50.826;14.354;2022-12-07T13:55:21;5.49;;;3.38;;
74180;SDS011;62544;50.826;14.354;2022-12-07T13:59:25;5.06;;;2.96;;
74180;SDS011;62544;50.826;14.354;2022-12-07T14:03:33;5.06;;;2.96;;
74180;SDS011;62544;50.826;14.354;2022-12-07T14:07:32;9.33;;;4.84;;
74180;SDS011;62544;50.826;14.354;2022-12-07T14:11:37;9.33;;;4.84;;
74180;SDS011;62544;50.826;14.354;2022-12-07T14:15:41;9.33;;;4.84;;
74180;SDS011;62544;50.826;14.354;2022-12-07T14:19:54;29.82;;;15.92;;
74180;SDS011;62544;50.826;14.354;2022-12-07T14:27:54;8.93;;;5.80;;
74180;SDS011;62544;50.826;14.354;2022-12-07T14:31:57;8.93;;;5.80;;
74180;SDS011;62544;50.826;14.354;2022-12-07T14:36:01;8.93;;;5.80;;
74180;SDS011;62544;50.826;14.354;2022-12-07T14:40:05;5.46;;;3.37;;
74180;SDS011;62544;50.826;14.354;2022-12-07T14:44:21;5.46;;;3.37;;
74180;SDS011;62544;50.826;14.354;2022-12-07T14:48:13;5.68;;;3.77;;
74180;SDS011;62544;50.826;14.354;2022-12-07T14:52:20;5.68;;;3.77;;
74180;SDS011;62544;50.826;14.354;2022-12-07T14:56:24;5.68;;;3.77;;
74180;SDS011;62544;50.826;14.354;2022-12-07T15:00:25;14.24;;;10.28;;
74180;SDS011;62544;50.826;14.354;2022-12-07T15:04:29;14.24;;;10.28;;
74180;SDS011;62544;50.826;14.354;2022-12-07T15:08:33;4.98;;;3.44;;
74180;SDS011;62544;50.826;14.354;2022-12-07T15:12:36;4.98;;;3.44;;
74180;SDS011;62544;50.826;14.354;2022-12-07T15:16:41;27.21;;;16.82;;
74180;SDS011;62544;50.826;14.354;2022-12-07T15:20:44;27.21;;;16.82;;
74180;SDS011;62544;50.826;14.354;2022-12-07T15:24:51;27.21;;;16.82;;
74180;SDS011;62544;50.826;14.354;2022-12-07T15:28:53;13.08;;;8.29;;
74180;SDS011;62544;50.826;14.354;2022-12-07T15:32:57;13.08;;;8.29;;
74180;SDS011;62544;50.826;14.354;2022-12-07T15:37:00;11.32;;;8.27;;
74180;SDS011;62544;50.826;14.354;2022-12-07T15:41:05;11.32;;;8.27;;
74180;SDS011;62544;50.826;14.354;2022-12-07T15:45:10;11.32;;;8.27;;
74180;SDS011;62544;50.826;14.354;2022-12-07T15:49:14;7.36;;;5.24;;
74180;SDS011;62544;50.826;14.354;2022-12-07T15:53:16;7.36;;;5.24;;
74180;SDS011;62544;50.826;14.354;2022-12-07T15:57:20;8.03;;;5.61;;
74180;SDS011;62544;50.826;14.354;2022-12-07T16:01:25;8.03;;;5.61;;
74180;SDS011;62544;50.826;14.354;2022-12-07T16:05:29;8.03;;;5.61;;
74180;SDS011;62544;50.826;14.354;2022-12-07T16:09:32;11.04;;;7.12;;
74180;SDS011;62544;50.826;14.354;2022-12-07T16:13:36;11.04;;;7.12;;
74180;SDS011;62544;50.826;14.354;2022-12-07T16:17:41;10.25;;;6.74;;
74180;SDS011;62544;50.826;14.354;2022-12-07T16:21:44;10.25;;;6.74;;
74180;SDS011;62544;50.826;14.354;2022-12-07T16:25:48;10.25;;;6.74;;
74180;SDS011;62544;50.826;14.354;2022-12-07T16:29:53;17.74;;;9.02;;
74180;SDS011;62544;50.826;14.354;2022-12-07T16:33:57;17.74;;;9.02;;
74180;SDS011;62544;50.826;14.354;2022-12-07T16:38:01;24.87;;;12.78;;
74180;SDS011;62544;50.826;14.354;2022-12-07T16:42:05;24.87;;;12.78;;
74180;SDS011;62544;50.826;14.354;2022-12-07T16:46:10;24.87;;;12.78;;
74180;SDS011;62544;50.826;14.354;2022-12-07T16:50:12;13.63;;;8.13;;
74180;SDS011;62544;50.826;14.354;2022-12-07T16:54:16;13.63;;;8.13;;
74180;SDS011;62544;50.826;14.354;2022-12-07T16:58:20;24.31;;;11.84;;
74180;SDS011;62544;50.826;14.354;2022-12-07T17:02:24;24.31;;;11.84;;
74180;SDS011;62544;50.826;14.354;2022-12-07T17:06:29;24.31;;;11.84;;
74180;SDS011;62544;50.826;14.354;2022-12-07T17:10:33;20.25;;;11.13;;
74180;SDS011;62544;50.826;14.354;2022-12-07T17:14:36;20.25;;;11.13;;
74180;SDS011;62544;50.826;14.354;2022-12-07T17:18:41;22.00;;;10.96;;
74180;SDS011;62544;50.826;14.354;2022-12-07T17:22:45;22.00;;;10.96;;
74180;SDS011;62544;50.826;14.354;2022-12-07T17:26:49;26.25;;;14.45;;
74180;SDS011;62544;50.826;14.354;2022-12-07T17:30:53;26.25;;;14.45;;
74180;SDS011;62544;50.826;14.354;2022-12-07T17:34:57;26.25;;;14.45;;
74180;SDS011;62544;50.826;14.354;2022-12-07T17:39:01;17.10;;;9.99;;
74180;SDS011;62544;50.826;14.354;2022-12-07T17:43:04;17.10;;;9.99;;
74180;SDS011;62544;50.826;14.354;2022-12-07T17:47:08;27.08;;;14.68;;
74180;SDS011;62544;50.826;14.354;2022-12-07T17:51:13;27.08;;;14.68;;
74180;SDS011;62544;50.826;14.354;2022-12-07T17:55:16;27.08;;;14.68;;
74180;SDS011;62544;50.826;14.354;2022-12-07T17:59:21;18.06;;;8.52;;
74180;SDS011;62544;50.826;14.354;2022-12-07T18:03:24;18.06;;;8.52;;
74180;SDS011;62544;50.826;14.354;2022-12-07T18:07:29;16.72;;;8.80;;
74180;SDS011;62544;50.826;14.354;2022-12-07T18:11:33;16.72;;;8.80;;
74180;SDS011;62544;50.826;14.354;2022-12-07T18:15:37;16.72;;;8.80;;
74180;SDS011;62544;50.826;14.354;2022-12-07T18:19:40;16.67;;;9.12;;
74180;SDS011;62544;50.826;14.354;2022-12-07T18:23:48;16.67;;;9.12;;
74180;SDS011;62544;50.826;14.354;2022-12-07T18:27:49;15.88;;;10.15;;
74180;SDS011;62544;50.826;14.354;2022-12-07T18:31:53;15.88;;;10.15;;
74180;SDS011;62544;50.826;14.354;2022-12-07T18:35:57;15.88;;;10.15;;
74180;SDS011;62544;50.826;14.354;2022-12-07T18:40:00;44.51;;;18.77;;
74180;SDS011;62544;50.826;14.354;2022-12-07T18:44:05;44.51;;;18.77;;
74180;SDS011;62544;50.826;14.354;2022-12-07T18:48:09;12.39;;;7.39;;
74180;SDS011;62544;50.826;14.354;2022-12-07T18:52:12;12.39;;;7.39;;
74180;SDS011;62544;50.826;14.354;2022-12-07T18:56:18;12.39;;;7.39;;
74180;SDS011;62544;50.826;14.354;2022-12-07T19:00:21;18.74;;;8.75;;
74180;SDS011;62544;50.826;14.354;2022-12-07T19:04:27;18.74;;;8.75;;
74180;SDS011;62544;50.826;14.354;2022-12-07T19:08:28;13.19;;;7.30;;
74180;SDS011;62544;50.826;14.354;2022-12-07T19:12:33;13.19;;;7.30;;
74180;SDS011;62544;50.826;14.354;2022-12-07T19:16:36;13.19;;;7.30;;
74180;SDS011;62544;50.826;14.354;2022-12-07T19:20:40;15.41;;;7.80;;
74180;SDS011;62544;50.826;14.354;2022-12-07T19:24:46;15.41;;;7.80;;
74180;SDS011;62544;50.826;14.354;2022-12-07T19:28:49;20.45;;;9.97;;
74180;SDS011;62544;50.826;14.354;2022-12-07T19:32:52;20.45;;;9.97;;
74180;SDS011;62544;50.826;14.354;2022-12-07T19:36:57;25.70;;;13.23;;
74180;SDS011;62544;50.826;14.354;2022-12-07T19:41:04;25.70;;;13.23;;
74180;SDS011;62544;50.826;14.354;2022-12-07T19:45:05;25.70;;;13.23;;
74180;SDS011;62544;50.826;14.354;2022-12-07T19:49:08;26.35;;;14.24;;
74180;SDS011;62544;50.826;14.354;2022-12-07T19:53:12;26.35;;;14.24;;
74180;SDS011;62544;50.826;14.354;2022-12-07T19:57:16;12.13;;;6.42;;
74180;SDS011;62544;50.826;14.354;2022-12-07T20:01:21;12.13;;;6.42;;
74180;SDS011;62544;50.826;14.354;2022-12-07T20:05:24;12.13;;;6.42;;
74180;SDS011;62544;50.826;14.354;2022-12-07T20:09:28;15.83;;;7.98;;
74180;SDS011;62544;50.826;14.354;2022-12-07T20:13:32;15.83;;;7.98;;
74180;SDS011;62544;50.826;14.354;2022-12-07T20:17:36;16.93;;;9.00;;
74180;SDS011;62544;50.826;14.354;2022-12-07T20:21:41;16.93;;;9.00;;
74180;SDS011;62544;50.826;14.354;2022-12-07T20:25:44;16.93;;;9.00;;
74180;SDS011;62544;50.826;14.354;2022-12-07T20:29:48;12.67;;;6.71;;
74180;SDS011;62544;50.826;14.354;2022-12-07T20:33:52;12.67;;;6.71;;
74180;SDS011;62544;50.826;14.354;2022-12-07T20:37:56;12.17;;;5.93;;
74180;SDS011;62544;50.826;14.354;2022-12-07T20:42:00;12.17;;;5.93;;
74180;SDS011;62544;50.826;14.354;2022-12-07T20:46:04;12.17;;;5.93;;
74180;SDS011;62544;50.826;14.354;2022-12-07T20:50:10;13.08;;;6.08;;
74180;SDS011;62544;50.826;14.354;2022-12-07T20:54:12;13.08;;;6.08;;
74180;SDS011;62544;50.826;14.354;2022-12-07T20:58:19;10.68;;;4.91;;
74180;SDS011;62544;50.826;14.354;2022-12-07T21:02:20;10.68;;;4.91;;
74180;SDS011;62544;50.826;14.354;2022-12-07T21:06:24;10.68;;;4.91;;
74180;SDS011;62544;50.826;14.354;2022-12-07T21:10:28;15.86;;;8.11;;
74180;SDS011;62544;50.826;14.354;2022-12-07T21:14:32;15.86;;;8.11;;
74180;SDS011;62544;50.826;14.354;2022-12-07T21:18:37;19.76;;;10.15;;
74180;SDS011;62544;50.826;14.354;2022-12-07T21:22:40;19.76;;;10.15;;
74180;SDS011;62544;50.826;14.354;2022-12-07T21:26:44;18.88;;;9.85;;
74180;SDS011;62544;50.826;14.354;2022-12-07T21:30:48;18.88;;;9.85;;
74180;SDS011;62544;50.826;14.354;2022-12-07T21:34:52;18.88;;;9.85;;
74180;SDS011;62544;50.826;14.354;2022-12-07T21:38:56;29.12;;;11.48;;
74180;SDS011;62544;50.826;14.354;2022-12-07T21:43:00;29.12;;;11.48;;
74180;SDS011;62544;50.826;14.354;2022-12-07T21:47:04;20.52;;;9.80;;
74180;SDS011;62544;50.826;14.354;2022-12-07T21:51:09;20.52;;;9.80;;
74180;SDS011;62544;50.826;14.354;2022-12-07T21:55:12;20.52;;;9.80;;
74180;SDS011;62544;50.826;14.354;2022-12-07T21:59:16;20.29;;;9.96;;
74180;SDS011;62544;50.826;14.354;2022-12-07T22:03:21;20.29;;;9.96;;
74180;SDS011;62544;50.826;14.354;2022-12-07T22:07:24;22.00;;;10.62;;
74180;SDS011;62544;50.826;14.354;2022-12-07T22:11:28;22.00;;;10.62;;
74180;SDS011;62544;50.826;14.354;2022-12-07T22:15:32;22.00;;;10.62;;
74180;SDS011;62544;50.826;14.354;2022-12-07T22:19:36;30.95;;;12.30;;
74180;SDS011;62544;50.826;14.354;2022-12-07T22:23:40;30.95;;;12.30;;
74180;SDS011;62544;50.826;14.354;2022-12-07T22:27:53;17.51;;;8.89;;
74180;SDS011;62544;50.826;14.354;2022-12-07T22:31:48;17.51;;;8.89;;
74180;SDS011;62544;50.826;14.354;2022-12-07T22:35:52;17.51;;;8.89;;
74180;SDS011;62544;50.826;14.354;2022-12-07T22:39:56;19.09;;;8.06;;
74180;SDS011;62544;50.826;14.354;2022-12-07T22:44:00;19.09;;;8.06;;
74180;SDS011;62544;50.826;14.354;2022-12-07T22:48:07;28.06;;;11.39;;
74180;SDS011;62544;50.826;14.354;2022-12-07T22:52:08;28.06;;;11.39;;
74180;SDS011;62544;50.826;14.354;2022-12-07T22:56:18;28.06;;;11.39;;
74180;SDS011;62544;50.826;14.354;2022-12-07T23:00:17;30.28;;;12.66;;
74180;SDS011;62544;50.826;14.354;2022-12-07T23:04:26;30.28;;;12.66;;
74180;SDS011;62544;50.826;14.354;2022-12-07T23:08:28;36.29;;;14.30;;
74180;SDS011;62544;50.826;14.354;2022-12-07T23:12:28;36.29;;;14.30;;
74180;SDS011;62544;50.826;14.354;2022-12-07T23:16:32;36.29;;;14.30;;
74180;SDS011;62544;50.826;14.354;2022-12-07T23:20:39;29.14;;;12.74;;
74180;SDS011;62544;50.826;14.354;2022-12-07T23:24:40;29.14;;;12.74;;
74180;SDS011;62544;50.826;14.354;2022-12-07T23:28:44;41.83;;;16.32;;
74180;SDS011;62544;50.826;14.354;2022-12-07T23:32:48;41.83;;;16.32;;
74180;SDS011;62544;50.826;14.354;2022-12-07T23:36:55;23.26;;;9.34;;
74180;SDS011;62544;50.826;14.354;2022-12-07T23:40:58;23.26;;;9.34;;
74180;SDS011;62544;50.826;14.354;2022-12-07T23:45:00;23.26;;;9.34;;
74180;SDS011;62544;50.826;14.354;2022-12-07T23:49:04;16.24;;;7.91;;
74180;SDS011;62544;50.826;14.354;2022-12-07T23:53:08;16.24;;;7.91;;
74180;SDS011;62544;50.826;14.354;2022-12-07T23:57:12;21.61;;;9.01;;
